Time;durP1;ratioP1;P1;durP2;ratioP2;P2;SDS_P1;SDS_P2;PMS_P1;PMS_P2;Temp;Humidity;BMP_temperature;BMP_pressure;BME280_temperature;BME280_humidity;BME280_pressure;Samples;Min_cycle;Max_cycle;Signal;HPM_P1;HPM_P2
2023/07/13 04:09:17;;;;;;;0.60;0.60;;;19.10;99.90;;;;;;4955142;28;20471;-60
2023/07/13 04:11:42;;;;;;;0.70;0.70;;;19.10;99.90;;;;;;4956062;29;20395;-62
2023/07/13 04:14:08;;;;;;;1.07;0.70;;;19.20;99.80;;;;;;4955224;29;20173;-61
2023/07/13 04:16:34;;;;;;;1.30;1.13;;;19.20;99.30;;;;;;4955436;29;20635;-61
2023/07/13 04:18:59;;;;;;;0.90;0.90;;;19.30;99.10;;;;;;4954814;28;20175;-61
2023/07/13 04:21:27;;;;;;;0.60;0.60;;;19.30;98.80;;;;;;4955663;29;20180;-62
2023/07/13 04:23:52;;;;;;;0.83;0.83;;;19.30;98.60;;;;;;4955722;28;20181;-64
2023/07/13 04:26:20;;;;;;;0.70;0.70;;;19.40;98.60;;;;;;4955735;29;20555;-62
2023/07/13 04:28:47;;;;;;;0.80;0.80;;;19.40;98.40;;;;;;4955939;28;20529;-61
2023/07/13 04:31:13;;;;;;;0.70;0.70;;;19.40;98.30;;;;;;4955935;29;20391;-60
2023/07/13 04:33:38;;;;;;;3.90;1.43;;;19.40;97.90;;;;;;4955131;28;20431;-62
2023/07/13 04:36:05;;;;;;;1.00;1.00;;;19.50;98.00;;;;;;4954592;29;20428;-61
2023/07/13 04:38:32;;;;;;;1.50;1.40;;;19.50;98.00;;;;;;4956189;28;20188;-62
2023/07/13 04:41:04;;;;;;;1.90;1.80;;;19.60;98.50;;;;;;4955831;28;20455;-61
2023/07/13 04:43:30;;;;;;;1.20;1.10;;;19.60;97.50;;;;;;4955463;29;20521;-61
2023/07/13 04:45:57;;;;;;;1.40;1.40;;;19.70;97.90;;;;;;4955415;29;20488;-61
2023/07/13 04:48:24;;;;;;;0.93;0.93;;;19.70;97.80;;;;;;4955712;29;20404;-61
2023/07/13 04:50:57;;;;;;;1.33;1.00;;;19.80;97.30;;;;;;4955529;29;20421;-60
2023/07/13 04:53:23;;;;;;;0.80;0.80;;;19.80;97.00;;;;;;4955330;29;20498;-62
2023/07/13 04:55:48;;;;;;;2.30;1.20;;;19.80;97.00;;;;;;4953388;28;20848;-58
2023/07/13 04:58:14;;;;;;;1.03;0.93;;;19.70;97.50;;;;;;4974875;28;20172;-61
2023/07/13 05:00:39;;;;;;;1.97;1.40;;;19.70;96.90;;;;;;4973822;28;20176;-60
2023/07/13 05:03:05;;;;;;;1.07;1.07;;;19.70;96.90;;;;;;4936257;29;20181;-62
2023/07/13 05:05:31;;;;;;;1.53;1.50;;;19.70;97.30;;;;;;4935219;29;20264;-63
2023/07/13 05:07:57;;;;;;;1.30;1.20;;;19.60;97.60;;;;;;4937987;29;20177;-61
2023/07/13 05:10:23;;;;;;;1.70;1.10;;;19.60;97.70;;;;;;4938331;29;20507;-62
2023/07/13 05:12:49;;;;;;;1.40;1.30;;;19.70;97.60;;;;;;4951964;28;20219;-59
2023/07/13 05:15:15;;;;;;;1.10;0.83;;;19.70;97.90;;;;;;4947851;28;20435;-58
2023/07/13 05:17:40;;;;;;;0.97;0.97;;;19.80;98.30;;;;;;4974251;28;20626;-59
2023/07/13 05:20:08;;;;;;;1.50;1.40;;;19.90;98.20;;;;;;4946712;28;20191;-60
2023/07/13 05:22:34;;;;;;;0.80;0.77;;;20.00;97.60;;;;;;4950039;29;20188;-61
2023/07/13 05:25:01;;;;;;;1.43;1.23;;;20.20;97.60;;;;;;4937449;29;20425;-64
2023/07/13 05:27:27;;;;;;;0.90;0.90;;;20.40;97.10;;;;;;4955199;29;20467;-61
2023/07/13 05:29:53;;;;;;;1.57;1.40;;;20.60;97.00;;;;;;4953805;29;20827;-61
2023/07/13 05:32:19;;;;;;;1.13;0.97;;;20.70;95.90;;;;;;4954892;29;20919;-59
2023/07/13 05:34:44;;;;;;;1.40;1.23;;;20.90;95.40;;;;;;4954571;29;20206;-59
2023/07/13 05:37:10;;;;;;;0.70;0.70;;;20.90;95.30;;;;;;4955098;29;20550;-59
2023/07/13 05:39:35;;;;;;;0.87;0.87;;;21.00;95.10;;;;;;4954262;29;20185;-57
2023/07/13 05:42:02;;;;;;;2.40;1.30;;;21.00;95.20;;;;;;4954944;29;20221;-60
2023/07/13 05:44:28;;;;;;;1.23;0.90;;;21.10;95.00;;;;;;4954076;28;20558;-61
2023/07/13 05:46:55;;;;;;;0.87;0.87;;;21.10;94.60;;;;;;4954772;29;20438;-62
2023/07/13 05:49:21;;;;;;;0.80;0.80;;;21.20;94.70;;;;;;4943223;29;20632;-64
2023/07/13 05:51:47;;;;;;;0.80;0.80;;;21.20;94.50;;;;;;4952865;29;20422;-60
2023/07/13 05:54:12;;;;;;;0.80;0.80;;;21.30;94.40;;;;;;4936653;29;20189;-62
2023/07/13 05:56:38;;;;;;;0.73;0.73;;;21.30;94.00;;;;;;4954903;29;20373;-60
2023/07/13 05:59:04;;;;;;;1.30;1.20;;;21.30;93.90;;;;;;4941395;28;20197;-62
2023/07/13 06:01:30;;;;;;;1.20;1.10;;;21.30;93.20;;;;;;4940822;29;20196;-60
2023/07/13 06:03:56;;;;;;;1.00;1.00;;;21.30;92.70;;;;;;4954423;29;20185;-61
2023/07/13 06:06:22;;;;;;;1.10;1.10;;;21.40;92.60;;;;;;4925596;29;21035;-57
2023/07/13 06:08:47;;;;;;;1.23;1.03;;;21.40;92.40;;;;;;4935748;29;20189;-61
2023/07/13 06:11:19;;;;;;;0.87;0.87;;;21.30;92.50;;;;;;4936661;29;20559;-59
2023/07/13 06:13:45;;;;;;;1.07;1.07;;;21.20;93.10;;;;;;4922261;29;20181;-60
2023/07/13 06:16:12;;;;;;;1.23;1.23;;;21.30;93.10;;;;;;4953245;29;20458;-62
2023/07/13 06:18:39;;;;;;;0.80;0.80;;;21.30;93.00;;;;;;4946665;28;20801;-61
2023/07/13 06:21:14;;;;;;;1.03;0.93;;;21.30;93.20;;;;;;4975124;28;20390;-61
2023/07/13 06:23:39;;;;;;;0.70;0.70;;;21.40;93.40;;;;;;4957726;29;20393;-59
2023/07/13 06:26:06;;;;;;;1.13;1.03;;;21.60;93.00;;;;;;4957687;29;20460;-59
2023/07/13 06:28:33;;;;;;;1.57;0.90;;;21.80;92.50;;;;;;4957786;28;20308;-62
2023/07/13 06:30:59;;;;;;;0.93;0.90;;;22.00;91.50;;;;;;4957066;29;20869;-60
2023/07/13 06:33:25;;;;;;;1.10;1.00;;;22.30;91.40;;;;;;4931587;29;20438;-60
2023/07/13 06:35:51;;;;;;;0.77;0.77;;;22.50;90.80;;;;;;4956147;28;20422;-60
2023/07/13 06:38:17;;;;;;;0.90;0.90;;;22.70;89.10;;;;;;4957558;29;20420;-64
2023/07/13 06:40:43;;;;;;;0.67;0.67;;;22.70;88.70;;;;;;4957224;28;20267;-62
2023/07/13 06:43:08;;;;;;;1.33;1.23;;;22.70;85.40;;;;;;4924268;29;20219;-64
2023/07/13 06:45:42;;;;;;;1.47;1.37;;;22.80;87.00;;;;;;4931820;29;20200;-63
2023/07/13 06:48:07;;;;;;;1.00;1.00;;;22.90;88.00;;;;;;4957503;29;20678;-58
2023/07/13 06:50:33;;;;;;;0.83;0.83;;;23.10;86.90;;;;;;4957573;28;20386;-59
2023/07/13 06:52:59;;;;;;;1.10;1.00;;;23.00;86.20;;;;;;4956586;29;20189;-60
2023/07/13 06:55:25;;;;;;;0.83;0.83;;;23.00;86.20;;;;;;4955368;29;20441;-62
2023/07/13 06:57:51;;;;;;;0.80;0.80;;;22.90;86.80;;;;;;4947370;29;20193;-64
2023/07/13 07:00:17;;;;;;;1.17;1.00;;;23.00;86.70;;;;;;4957271;29;20471;-61
2023/07/13 07:02:42;;;;;;;0.63;0.63;;;23.20;86.40;;;;;;4950269;29;20181;-60
2023/07/13 07:05:08;;;;;;;1.07;0.90;;;23.30;86.20;;;;;;4956755;29;20475;-63
2023/07/13 07:07:34;;;;;;;0.70;0.70;;;23.40;86.50;;;;;;4952821;29;20227;-61
2023/07/13 07:10:01;;;;;;;0.70;0.70;;;23.70;86.70;;;;;;4938290;29;20612;-62
2023/07/13 07:12:27;;;;;;;1.17;1.07;;;23.90;85.50;;;;;;4938690;29;20459;-63
2023/07/13 07:14:52;;;;;;;0.80;0.80;;;24.00;83.00;;;;;;4949482;29;20205;-64
2023/07/13 07:17:18;;;;;;;0.80;0.80;;;24.30;82.80;;;;;;4944313;29;20434;-62
2023/07/13 07:19:44;;;;;;;0.80;0.80;;;24.40;82.20;;;;;;4938326;29;20192;-62
2023/07/13 07:22:09;;;;;;;0.90;0.80;;;24.40;82.30;;;;;;4929080;29;20252;-62
2023/07/13 07:24:35;;;;;;;0.80;0.80;;;24.40;81.30;;;;;;4953018;29;20205;-62
2023/07/13 07:27:00;;;;;;;1.10;1.10;;;24.50;81.50;;;;;;4956974;28;20575;-62
2023/07/13 07:29:27;;;;;;;0.70;0.70;;;24.60;81.20;;;;;;4956623;28;20243;-62
2023/07/13 07:31:53;;;;;;;1.30;1.20;;;24.60;77.80;;;;;;4948123;29;20193;-62
2023/07/13 07:34:19;;;;;;;1.13;1.03;;;24.70;78.20;;;;;;4937300;29;20804;-62
2023/07/13 07:36:45;;;;;;;0.70;0.70;;;25.10;76.70;;;;;;4942593;29;20428;-62
2023/07/13 07:39:11;;;;;;;0.90;0.90;;;25.70;77.40;;;;;;4931954;29;20425;-62
2023/07/13 07:41:37;;;;;;;0.97;0.97;;;26.50;74.20;;;;;;4937724;29;20185;-62
2023/07/13 07:44:03;;;;;;;0.93;0.93;;;27.30;70.40;;;;;;4937020;29;20392;-63
2023/07/13 07:46:29;;;;;;;1.40;1.30;;;28.00;69.20;;;;;;4937253;29;20457;-63
2023/07/13 07:48:56;;;;;;;0.70;0.70;;;29.00;65.70;;;;;;4940562;29;20893;-62
2023/07/13 07:51:21;;;;;;;2.23;0.83;;;30.20;62.90;;;;;;4951350;29;20181;-63
2023/07/13 07:53:47;;;;;;;1.40;1.30;;;31.10;59.80;;;;;;4941780;28;20428;-61
2023/07/13 07:56:16;;;;;;;1.50;1.27;;;32.00;59.30;;;;;;4956246;29;20678;-61
2023/07/13 07:58:41;;;;;;;1.17;1.17;;;33.10;58.20;;;;;;4956217;29;20412;-62
2023/07/13 08:01:07;;;;;;;1.00;1.00;;;34.00;54.20;;;;;;4954957;28;20457;-62
2023/07/13 08:03:33;;;;;;;1.07;0.87;;;34.60;54.40;;;;;;4955844;28;20551;-63
2023/07/13 08:05:58;;;;;;;1.00;1.00;;;35.40;53.30;;;;;;4955489;28;20208;-63
2023/07/13 08:08:24;;;;;;;0.90;0.90;;;35.90;50.60;;;;;;4956025;29;20195;-61
2023/07/13 08:10:50;;;;;;;1.13;1.03;;;35.90;50.70;;;;;;4955601;29;20632;-63
2023/07/13 08:13:15;;;;;;;1.20;1.20;;;35.70;50.20;;;;;;4953512;29;20433;-63
2023/07/13 08:15:41;;;;;;;1.10;1.10;;;35.30;49.60;;;;;;4955568;29;20292;-62
2023/07/13 08:18:09;;;;;;;1.00;1.00;;;35.50;50.20;;;;;;4955619;29;20180;-61
2023/07/13 08:20:39;;;;;;;0.80;0.77;;;35.70;47.80;;;;;;4955906;29;20185;-61
2023/07/13 08:23:06;;;;;;;1.00;0.97;;;35.50;46.10;;;;;;4954864;28;20431;-61
2023/07/13 08:25:31;;;;;;;1.00;1.00;;;35.50;47.60;;;;;;4954861;29;20464;-60
2023/07/13 08:27:57;;;;;;;2.77;1.00;;;35.70;47.50;;;;;;4938544;29;20471;-62
2023/07/13 08:30:23;;;;;;;0.93;0.93;;;35.90;47.50;;;;;;4955962;29;20177;-62
2023/07/13 08:32:49;;;;;;;1.03;1.03;;;36.10;48.70;;;;;;4955107;29;20176;-66
2023/07/13 08:35:15;;;;;;;0.90;0.90;;;36.60;48.40;;;;;;4955129;28;20251;-63
2023/07/13 08:37:41;;;;;;;1.00;1.00;;;37.20;46.80;;;;;;4955828;29;20428;-62
2023/07/13 08:40:09;;;;;;;3.70;1.40;;;37.10;45.50;;;;;;4955596;28;20430;-63
2023/07/13 08:43:16;;;;;;;1.07;1.07;;;36.10;46.60;;;;;;4947630;29;20537;-64
2023/07/13 08:46:04;;;;;;;0.90;0.90;;;35.90;47.30;;;;;;4916637;29;20452;-67
2023/07/13 08:48:35;;;;;;;1.07;1.07;;;35.70;47.50;;;;;;4936336;29;20401;-66
2023/07/13 08:51:25;;;;;;;1.10;1.10;;;36.00;46.90;;;;;;4936353;29;20406;-66
2023/07/13 08:53:54;;;;;;;3.50;1.43;;;36.70;46.60;;;;;;4952788;29;20503;-65
2023/07/13 08:56:24;;;;;;;1.00;1.00;;;37.70;44.90;;;;;;4955176;28;20500;-63
2023/07/13 08:59:10;;;;;;;1.20;1.20;;;38.00;44.30;;;;;;4954873;28;20421;-67
2023/07/13 09:01:42;;;;;;;1.17;1.07;;;38.00;44.00;;;;;;4955191;28;20424;-66
2023/07/13 09:04:11;;;;;;;1.03;1.03;;;37.70;43.60;;;;;;4935460;29;20825;-65
2023/07/13 09:07:12;;;;;;;0.97;0.97;;;37.00;44.00;;;;;;4936075;29;20496;-62
2023/07/13 09:10:05;;;;;;;0.90;0.90;;;36.80;44.80;;;;;;4939437;29;20435;-64
2023/07/13 09:12:46;;;;;;;1.03;1.03;;;36.90;44.70;;;;;;4954550;28;20424;-65
2023/07/13 09:15:25;;;;;;;0.97;0.97;;;37.10;44.10;;;;;;4954617;29;20516;-66
2023/07/13 09:17:55;;;;;;;1.63;0.97;;;37.50;44.90;;;;;;4954742;29;20416;-63
2023/07/13 09:20:31;;;;;;;1.00;1.00;;;37.40;44.20;;;;;;4954880;28;20917;-66
2023/07/13 09:23:01;;;;;;;1.13;1.10;;;36.90;44.20;;;;;;4953824;28;20424;-66
2023/07/13 09:25:35;;;;;;;1.00;1.00;;;36.50;45.20;;;;;;4954613;29;20464;-64
2023/07/13 09:28:22;;;;;;;1.03;1.03;;;35.30;45.50;;;;;;4954799;28;20902;-63
2023/07/13 09:31:05;;;;;;;1.10;1.10;;;34.70;45.90;;;;;;4955010;28;20405;-64
2023/07/13 09:33:31;;;;;;;1.07;1.07;;;34.50;46.70;;;;;;4935330;29;20410;-64
2023/07/13 09:36:00;;;;;;;3.40;2.37;;;34.60;46.60;;;;;;4935542;29;20457;-62
2023/07/13 09:38:30;;;;;;;1.00;1.00;;;35.00;47.10;;;;;;4945168;29;20177;-65
2023/07/13 09:41:19;;;;;;;2.73;2.53;;;35.30;46.10;;;;;;4954317;29;20460;-63
2023/07/13 09:44:30;;;;;;;1.70;1.60;;;35.30;46.40;;;;;;4954499;28;20405;-62
2023/07/13 09:46:56;;;;;;;0.87;0.83;;;35.80;46.60;;;;;;4933538;29;20915;-62
2023/07/13 09:49:38;;;;;;;1.10;1.10;;;35.90;45.00;;;;;;4951832;28;20449;-65
2023/07/13 09:52:07;;;;;;;1.10;1.10;;;36.00;45.20;;;;;;4935633;29;20531;-66
2023/07/13 09:54:37;;;;;;;1.07;1.07;;;36.00;44.80;;;;;;4958226;29;20791;-64
2023/07/13 09:57:11;;;;;;;1.10;1.10;;;36.40;46.10;;;;;;4955009;29;20885;-63
2023/07/13 09:59:43;;;;;;;1.27;1.27;;;36.30;45.00;;;;;;4946378;29;20416;-65
2023/07/13 10:02:34;;;;;;;1.10;1.00;;;36.10;44.80;;;;;;4945799;29;20791;-65
2023/07/13 10:05:11;;;;;;;1.97;1.20;;;35.70;45.10;;;;;;4921603;29;20449;-65
2023/07/13 10:07:44;;;;;;;1.30;1.20;;;35.50;45.30;;;;;;4921724;29;20549;-63
2023/07/13 10:10:27;;;;;;;1.00;1.00;;;35.90;46.50;;;;;;4939128;29;20409;-66
2023/07/13 10:12:53;;;;;;;1.47;1.33;;;36.10;43.50;;;;;;4939384;29;20423;-64
2023/07/13 10:15:21;;;;;;;1.13;1.03;;;35.90;43.50;;;;;;4945384;29;20939;-66
2023/07/13 10:17:49;;;;;;;1.00;1.00;;;35.60;46.10;;;;;;4921868;29;20182;-65
2023/07/13 10:20:14;;;;;;;1.20;1.20;;;35.50;45.70;;;;;;4938973;29;20401;-66
2023/07/13 10:22:43;;;;;;;1.03;1.03;;;35.10;46.20;;;;;;4926923;29;20436;-64
2023/07/13 10:25:26;;;;;;;0.80;0.80;;;34.80;44.80;;;;;;4949107;29;20272;-64
2023/07/13 10:27:56;;;;;;;1.20;1.20;;;34.60;45.40;;;;;;4947362;29;20413;-66
2023/07/13 10:30:28;;;;;;;1.73;0.97;;;34.20;45.60;;;;;;4941134;29;20416;-65
2023/07/13 10:32:53;;;;;;;0.97;0.97;;;33.60;46.30;;;;;;4953260;29;20424;-64
2023/07/13 10:35:22;;;;;;;1.10;1.10;;;33.30;47.00;;;;;;4947252;29;20788;-66
2023/07/13 10:37:50;;;;;;;1.00;1.00;;;33.00;46.70;;;;;;4966985;28;20211;-65
2023/07/13 10:40:22;;;;;;;1.30;1.20;;;32.60;48.40;;;;;;4954958;28;20479;-65
2023/07/13 10:42:51;;;;;;;1.23;1.10;;;32.30;47.70;;;;;;4957539;29;20515;-67
2023/07/13 10:45:22;;;;;;;1.27;1.13;;;32.30;50.90;;;;;;4957509;29;20797;-63
2023/07/13 10:47:52;;;;;;;1.00;1.00;;;32.60;48.20;;;;;;4941841;29;20400;-66
2023/07/13 10:50:26;;;;;;;1.20;1.10;;;32.70;47.70;;;;;;4948152;29;20473;-67
2023/07/13 10:53:01;;;;;;;1.03;0.97;;;32.60;48.40;;;;;;4953241;29;20434;-66
2023/07/13 10:56:15;;;;;;;1.40;1.30;;;32.60;49.80;;;;;;4953623;29;20425;-64
2023/07/13 10:58:43;;;;;;;1.37;1.00;;;32.00;49.80;;;;;;4934868;29;20443;-66
2023/07/13 11:01:17;;;;;;;1.27;1.17;;;31.60;49.40;;;;;;4950402;29;20425;-67
2023/07/13 11:03:50;;;;;;;1.60;1.50;;;31.40;50.60;;;;;;4937122;29;20425;-64
2023/07/13 11:06:24;;;;;;;1.10;1.00;;;31.10;51.20;;;;;;4938059;29;20607;-65
2023/07/13 11:08:58;;;;;;;0.70;0.70;;;30.70;51.80;;;;;;4941321;29;20402;-67
2023/07/13 11:11:24;;;;;;;4.20;1.03;;;30.70;53.30;;;;;;4940057;29;20430;-66
2023/07/13 11:13:49;;;;;;;1.53;1.43;;;31.10;51.70;;;;;;4938263;29;20481;-65
2023/07/13 11:16:18;;;;;;;1.00;1.00;;;31.20;51.00;;;;;;4937632;29;20700;-66
2023/07/13 11:19:03;;;;;;;1.20;1.10;;;31.00;51.20;;;;;;4938717;29;20318;-63
2023/07/13 11:21:32;;;;;;;1.40;1.30;;;30.60;51.70;;;;;;4946564;28;20958;-65
2023/07/13 11:24:17;;;;;;;1.20;1.03;;;30.30;53.30;;;;;;4937702;29;20504;-63
2023/07/13 11:26:45;;;;;;;1.13;1.13;;;29.90;51.30;;;;;;4942121;28;20780;-63
2023/07/13 11:29:17;;;;;;;1.37;1.20;;;29.60;51.70;;;;;;4963616;28;20443;-66
2023/07/13 11:31:50;;;;;;;1.20;1.10;;;29.40;54.10;;;;;;4955703;28;20392;-67
2023/07/13 11:34:21;;;;;;;1.20;1.17;;;29.20;54.60;;;;;;4956264;29;20395;-64
2023/07/13 11:36:47;;;;;;;1.03;1.00;;;29.30;53.80;;;;;;4943588;29;20439;-66
2023/07/13 11:39:26;;;;;;;1.60;1.50;;;29.20;53.10;;;;;;4947676;29;20391;-64
2023/07/13 11:41:56;;;;;;;1.70;1.47;;;28.90;53.00;;;;;;4951180;29;20449;-61
2023/07/13 11:44:23;;;;;;;1.33;1.23;;;28.80;54.40;;;;;;4949413;29;20451;-62
2023/07/13 11:47:07;;;;;;;1.00;1.00;;;28.50;54.40;;;;;;4955856;29;20459;-62
2023/07/13 11:49:43;;;;;;;0.87;0.87;;;28.20;53.60;;;;;;4939773;29;20403;-61
2023/07/13 11:52:15;;;;;;;1.20;1.13;;;28.10;54.60;;;;;;4937552;29;20467;-62
2023/07/13 11:54:56;;;;;;;1.20;1.10;;;28.10;55.40;;;;;;4936852;29;20454;-61
2023/07/13 11:57:31;;;;;;;1.03;1.03;;;28.00;54.20;;;;;;4947812;29;20788;-62
2023/07/13 11:59:59;;;;;;;1.10;1.10;;;27.70;55.20;;;;;;4956597;29;20401;-62
2023/07/13 12:02:31;;;;;;;1.73;1.10;;;27.60;54.20;;;;;;4956364;29;20387;-61
2023/07/13 12:04:58;;;;;;;1.50;1.20;;;27.70;55.70;;;;;;4956035;28;20804;-62
2023/07/13 12:07:24;;;;;;;3.70;1.43;;;27.60;54.10;;;;;;4944295;29;20451;-62
2023/07/13 12:09:50;;;;;;;1.20;1.10;;;27.40;55.80;;;;;;4937168;29;20383;-61
2023/07/13 12:12:20;;;;;;;1.23;1.17;;;27.40;55.80;;;;;;4943542;29;20185;-61
2023/07/13 12:14:46;;;;;;;1.33;1.20;;;27.40;56.70;;;;;;4945997;28;20843;-61
2023/07/13 12:17:21;;;;;;;1.47;1.37;;;27.70;56.50;;;;;;4955065;29;20617;-61
2023/07/13 12:19:51;;;;;;;1.20;1.10;;;27.80;55.10;;;;;;4955728;29;20187;-61
2023/07/13 12:22:19;;;;;;;1.20;1.20;;;27.80;55.30;;;;;;4955112;29;20424;-61
2023/07/13 12:24:45;;;;;;;1.20;1.10;;;27.80;55.10;;;;;;4955323;29;20527;-61
2023/07/13 12:27:24;;;;;;;1.13;1.10;;;27.90;55.20;;;;;;4938515;29;20394;-61
2023/07/13 12:29:53;;;;;;;0.83;0.83;;;27.90;54.60;;;;;;4938070;29;20399;-61
2023/07/13 12:32:19;;;;;;;1.07;1.07;;;27.90;53.40;;;;;;4949464;29;20921;-63
2023/07/13 12:34:56;;;;;;;0.83;0.83;;;27.80;52.80;;;;;;4919155;29;20496;-61
2023/07/13 12:37:22;;;;;;;1.17;1.07;;;27.70;53.90;;;;;;4936650;29;20549;-61
2023/07/13 12:39:49;;;;;;;0.80;0.80;;;27.50;55.50;;;;;;4936744;29;20826;-61
2023/07/13 12:42:28;;;;;;;1.00;0.90;;;27.40;55.80;;;;;;4936617;29;20402;-61
2023/07/13 12:44:59;;;;;;;1.33;1.20;;;27.40;55.00;;;;;;4936063;29;20516;-62
2023/07/13 12:47:25;;;;;;;0.80;0.80;;;27.30;55.40;;;;;;4936698;29;20400;-62
2023/07/13 12:49:56;;;;;;;1.00;1.00;;;27.20;55.00;;;;;;4936404;29;20480;-61
2023/07/13 12:52:32;;;;;;;1.00;1.00;;;27.10;54.90;;;;;;4955153;28;20180;-62
2023/07/13 12:55:19;;;;;;;0.77;0.77;;;27.00;55.60;;;;;;4942908;29;20806;-62
2023/07/13 12:57:52;;;;;;;1.13;1.07;;;26.90;55.30;;;;;;4969413;28;20481;-62
2023/07/13 13:00:32;;;;;;;0.87;0.80;;;26.70;56.20;;;;;;4953022;28;20468;-62
2023/07/13 13:03:03;;;;;;;1.10;1.10;;;26.70;56.40;;;;;;4936348;29;20403;-62
2023/07/13 13:05:30;;;;;;;1.30;1.20;;;26.70;56.50;;;;;;4918489;29;20421;-62
2023/07/13 13:07:56;;;;;;;1.03;1.00;;;26.80;56.30;;;;;;4955256;28;20470;-62
2023/07/13 13:10:21;;;;;;;0.90;0.90;;;26.80;55.40;;;;;;4952673;28;20396;-61
2023/07/13 13:12:47;;;;;;;1.10;1.07;;;27.00;56.50;;;;;;4935894;29;20199;-62
2023/07/13 13:15:14;;;;;;;1.10;1.10;;;27.10;55.50;;;;;;4936681;29;20195;-62
2023/07/13 13:17:40;;;;;;;1.40;0.93;;;27.10;54.90;;;;;;4953677;28;20489;-61
2023/07/13 13:20:25;;;;;;;0.90;0.90;;;27.10;53.40;;;;;;4950508;29;20429;-61
2023/07/13 13:22:52;;;;;;;1.20;1.10;;;27.10;52.90;;;;;;4935720;29;20432;-62
2023/07/13 13:25:18;;;;;;;1.17;1.07;;;27.10;53.70;;;;;;4935744;29;20823;-61
2023/07/13 13:27:45;;;;;;;1.13;1.13;;;27.20;53.30;;;;;;4954378;28;20522;-62
2023/07/13 13:30:17;;;;;;;1.00;0.90;;;27.30;52.30;;;;;;4939881;29;20436;-61
2023/07/13 13:32:44;;;;;;;0.80;0.80;;;27.40;53.40;;;;;;4941073;29;20946;-63
2023/07/13 13:35:18;;;;;;;1.50;1.40;;;27.60;54.50;;;;;;4959696;28;20845;-62
2023/07/13 13:37:45;;;;;;;0.83;0.83;;;27.80;53.50;;;;;;4962004;28;20460;-62
2023/07/13 13:40:19;;;;;;;2.00;1.10;;;27.80;54.40;;;;;;4958801;29;20449;-62
2023/07/13 13:42:45;;;;;;;1.10;1.10;;;28.00;54.10;;;;;;4955248;29;20473;-61
2023/07/13 13:45:17;;;;;;;1.00;1.00;;;28.10;53.80;;;;;;4954499;28;20823;-62
2023/07/13 13:47:44;;;;;;;1.20;1.20;;;28.10;54.40;;;;;;4956052;29;20188;-69
2023/07/13 13:50:14;;;;;;;0.93;0.93;;;28.10;53.70;;;;;;4941435;29;20490;-67
2023/07/13 13:52:40;;;;;;;1.03;1.00;;;28.10;53.40;;;;;;4931719;29;20507;-66
2023/07/13 13:55:18;;;;;;;1.10;1.10;;;28.10;52.80;;;;;;4939183;29;20765;-66
2023/07/13 13:57:45;;;;;;;0.97;0.97;;;28.00;53.20;;;;;;4952576;29;20549;-67
2023/07/13 14:00:14;;;;;;;1.27;1.17;;;27.90;53.20;;;;;;4958444;29;20904;-68
2023/07/13 14:02:41;;;;;;;1.00;0.93;;;27.90;52.60;;;;;;4941201;29;20414;-68
2023/07/13 14:05:12;;;;;;;1.10;1.07;;;27.80;52.70;;;;;;4958075;28;20827;-68
2023/07/13 14:07:38;;;;;;;1.17;1.13;;;27.70;53.20;;;;;;4945597;29;20799;-66
2023/07/13 14:10:11;;;;;;;1.00;1.00;;;27.60;54.10;;;;;;4939264;29;20480;-65
2023/07/13 14:12:37;;;;;;;1.10;0.97;;;27.50;53.50;;;;;;4939394;29;20560;-68
2023/07/13 14:15:03;;;;;;;1.87;1.30;;;27.40;53.20;;;;;;4921597;29;20418;-67
2023/07/13 14:17:29;;;;;;;1.00;1.00;;;27.30;53.50;;;;;;4949158;29;20679;-68
2023/07/13 14:19:57;;;;;;;2.20;1.00;;;27.20;54.30;;;;;;4940591;29;20177;-67
2023/07/13 14:22:26;;;;;;;0.80;0.80;;;27.00;53.80;;;;;;4958272;28;20191;-67
2023/07/13 14:24:53;;;;;;;1.27;1.20;;;27.00;54.60;;;;;;4957694;29;20399;-68
2023/07/13 14:27:19;;;;;;;1.60;0.97;;;27.00;54.40;;;;;;4948389;28;20436;-66
2023/07/13 14:29:44;;;;;;;1.57;1.10;;;27.00;54.70;;;;;;4938736;29;20405;-67
2023/07/13 14:32:11;;;;;;;0.97;0.97;;;27.10;54.90;;;;;;4938780;29;20174;-68
2023/07/13 14:34:37;;;;;;;0.90;0.90;;;27.10;54.10;;;;;;4938373;29;20272;-67
2023/07/13 14:37:04;;;;;;;1.10;1.10;;;27.20;54.80;;;;;;4950817;28;20432;-68
2023/07/13 14:39:30;;;;;;;1.17;1.00;;;27.10;54.00;;;;;;4936908;29;20495;-67
2023/07/13 14:41:57;;;;;;;1.00;1.00;;;27.00;54.40;;;;;;4938324;29;20545;-68
2023/07/13 14:44:28;;;;;;;1.27;1.17;;;26.90;55.00;;;;;;4938106;29;20429;-66
2023/07/13 14:46:55;;;;;;;0.80;0.80;;;26.90;54.40;;;;;;4941742;29;20996;-66
2023/07/13 14:49:39;;;;;;;0.93;0.93;;;26.90;54.30;;;;;;4957746;28;20412;-66
2023/07/13 14:52:22;;;;;;;0.80;0.80;;;27.00;54.30;;;;;;4957592;29;20498;-69
2023/07/13 14:54:48;;;;;;;0.90;0.90;;;27.10;54.70;;;;;;4939998;29;21002;-67
2023/07/13 14:57:15;;;;;;;1.57;0.80;;;27.20;54.80;;;;;;4950149;29;20549;-67
2023/07/13 14:59:44;;;;;;;0.90;0.80;;;27.30;54.30;;;;;;4938376;29;20177;-67
2023/07/13 15:02:31;;;;;;;1.40;1.30;;;27.30;53.60;;;;;;4938394;29;20402;-68
2023/07/13 15:04:57;;;;;;;1.00;1.00;;;27.20;53.80;;;;;;4937861;29;20895;-68
2023/07/13 15:07:23;;;;;;;0.90;0.90;;;27.10;56.00;;;;;;4945849;28;20505;-66
2023/07/13 15:09:48;;;;;;;1.13;1.10;;;27.20;54.60;;;;;;4944121;28;20428;-67
2023/07/13 15:12:14;;;;;;;1.10;1.10;;;27.30;54.70;;;;;;4976645;28;20177;-67
2023/07/13 15:14:40;;;;;;;1.10;1.10;;;27.30;54.90;;;;;;4966589;28;20229;-64
2023/07/13 15:17:30;;;;;;;1.07;1.07;;;27.30;55.20;;;;;;4956486;28;20229;-62
2023/07/13 15:19:56;;;;;;;1.00;1.00;;;27.20;55.20;;;;;;4957332;29;20184;-63
2023/07/13 15:22:21;;;;;;;1.13;1.03;;;27.10;55.10;;;;;;4956876;29;20396;-64
2023/07/13 15:24:47;;;;;;;1.40;1.30;;;27.00;55.50;;;;;;4956466;28;20429;-61
2023/07/13 15:27:13;;;;;;;1.23;1.10;;;27.10;55.60;;;;;;4962483;28;20184;-64
2023/07/13 15:29:42;;;;;;;1.20;1.10;;;27.10;54.70;;;;;;4956885;29;20185;-61
2023/07/13 15:32:13;;;;;;;1.00;1.00;;;27.10;54.90;;;;;;4956874;29;20204;-65
2023/07/13 15:34:39;;;;;;;1.20;1.20;;;27.20;55.00;;;;;;4955834;28;20440;-64
2023/07/13 15:37:15;;;;;;;1.30;1.20;;;27.20;55.20;;;;;;4955798;29;20571;-63
2023/07/13 15:39:42;;;;;;;1.80;1.70;;;27.30;55.40;;;;;;4956604;29;20532;-63
2023/07/13 15:42:16;;;;;;;1.07;1.07;;;27.40;55.30;;;;;;4939324;29;20429;-67
2023/07/13 15:44:42;;;;;;;1.37;1.27;;;27.40;54.40;;;;;;4956081;28;20429;-71
2023/07/13 15:47:12;;;;;;;1.40;1.30;;;27.30;54.80;;;;;;4956659;28;20428;-66
2023/07/13 15:49:39;;;;;;;1.20;1.20;;;27.20;54.70;;;;;;4948798;29;20265;-64
2023/07/13 15:52:05;;;;;;;1.40;1.30;;;27.10;54.30;;;;;;4943083;29;20857;-65
2023/07/13 15:54:31;;;;;;;0.80;0.80;;;27.10;55.30;;;;;;4949462;29;20477;-62
2023/07/13 15:57:01;;;;;;;1.33;1.23;;;26.90;54.80;;;;;;4959381;28;20521;-63
2023/07/13 15:59:27;;;;;;;1.27;1.17;;;26.80;55.10;;;;;;4976625;28;20220;-65
2023/07/13 16:01:53;;;;;;;1.60;1.40;;;26.70;55.50;;;;;;4957216;28;20947;-66
2023/07/13 16:04:20;;;;;;;1.00;1.00;;;26.50;56.40;;;;;;4954524;29;20507;-63
2023/07/13 16:06:47;;;;;;;1.23;1.23;;;26.40;55.80;;;;;;4957224;29;20413;-68
2023/07/13 16:09:22;;;;;;;0.90;0.80;;;26.30;56.00;;;;;;4956636;29;20815;-62
2023/07/13 16:11:51;;;;;;;1.10;1.00;;;26.20;55.80;;;;;;4935926;29;20854;-65
2023/07/13 16:14:18;;;;;;;0.90;0.80;;;26.10;55.80;;;;;;4945899;29;20421;-65
2023/07/13 16:16:44;;;;;;;1.03;1.00;;;26.10;55.50;;;;;;4956055;29;20487;-66
2023/07/13 16:19:10;;;;;;;1.00;1.00;;;26.10;56.30;;;;;;4956188;29;20421;-66
2023/07/13 16:21:44;;;;;;;1.00;1.00;;;26.00;55.60;;;;;;4954661;29;20408;-66
2023/07/13 16:24:28;;;;;;;1.20;1.10;;;26.00;56.00;;;;;;4925455;29;20578;-66
2023/07/13 16:26:55;;;;;;;0.87;0.87;;;25.90;56.30;;;;;;4953143;29;20424;-60
2023/07/13 16:29:27;;;;;;;1.33;1.07;;;25.90;56.30;;;;;;4938704;29;20442;-62
2023/07/13 16:32:05;;;;;;;1.07;0.97;;;25.80;57.30;;;;;;4940091;29;20773;-62
2023/07/13 16:34:35;;;;;;;1.50;1.20;;;25.70;55.80;;;;;;4936127;29;20728;-62
2023/07/13 16:37:04;;;;;;;1.10;0.90;;;25.50;56.70;;;;;;4947804;29;20950;-65
2023/07/13 16:39:30;;;;;;;0.70;0.70;;;25.50;57.10;;;;;;4955648;29;20463;-62
2023/07/13 16:41:58;;;;;;;1.13;1.03;;;25.50;57.00;;;;;;4939229;29;20430;-66
2023/07/13 16:44:25;;;;;;;0.90;0.90;;;25.50;57.80;;;;;;4936088;29;20250;-67
2023/07/13 16:46:56;;;;;;;0.73;0.73;;;25.40;57.80;;;;;;4936131;29;20388;-64
2023/07/13 16:49:24;;;;;;;1.67;1.30;;;25.40;57.60;;;;;;4936591;29;20417;-68
2023/07/13 16:51:50;;;;;;;0.80;0.80;;;25.30;57.60;;;;;;4933446;29;20526;-63
2023/07/13 16:54:18;;;;;;;0.90;0.90;;;25.30;57.40;;;;;;4937395;29;20441;-67
2023/07/13 16:56:50;;;;;;;0.83;0.80;;;25.30;57.40;;;;;;4947759;28;20516;-68
2023/07/13 16:59:19;;;;;;;0.87;0.87;;;25.20;57.70;;;;;;4942988;29;20416;-68
2023/07/13 17:01:46;;;;;;;1.10;0.93;;;25.10;57.20;;;;;;4954615;28;20438;-68
2023/07/13 17:04:16;;;;;;;0.80;0.80;;;25.10;56.90;;;;;;4945694;29;20429;-65
2023/07/13 17:06:42;;;;;;;1.93;1.57;;;25.00;57.50;;;;;;4939170;29;20753;-69
2023/07/13 17:09:14;;;;;;;1.10;1.10;;;25.00;57.50;;;;;;4936201;29;20436;-70